Time;durP1;ratioP1;P1;durP2;ratioP2;P2;SDS_P1;SDS_P2;PMS_P1;PMS_P2;Temp;Humidity;BMP_temperature;BMP_pressure;BME280_temperature;BME280_humidity;BME280_pressure;Samples;Min_cycle;Max_cycle;Signal;HPM_P1;HPM_P2
2021/12/06 00:01:07;;;;;;;0.50;0.50;;;;;;;8.58;100.00;94652.94;5132531;28;20522;-52
2021/12/06 00:03:41;;;;;;;0.40;0.40;;;;;;;8.85;100.00;94655.16;5132635;28;20483;-52
2021/12/06 00:06:10;;;;;;;0.40;0.30;;;;;;;9.06;100.00;94661.88;5132917;27;20438;-52
2021/12/06 00:08:38;;;;;;;0.93;0.93;;;;;;;8.63;100.00;94644.19;5132392;28;20481;-52
2021/12/06 00:11:08;;;;;;;0.60;0.40;;;;;;;8.49;100.00;94661.69;5132905;27;20490;-52
2021/12/06 00:13:37;;;;;;;0.40;0.30;;;;;;;8.63;100.00;94647.63;5132473;28;20473;-52
2021/12/06 00:16:13;;;;;;;0.40;0.40;;;;;;;8.75;100.00;94642.03;5132434;28;20462;-52
2021/12/06 00:18:41;;;;;;;5.23;0.60;;;;;;;8.72;100.00;94651.28;5132770;28;20426;-52
2021/12/06 00:21:10;;;;;;;0.30;0.20;;;;;;;8.57;100.00;94624.97;5132415;27;20458;-52
2021/12/06 00:23:40;;;;;;;0.40;0.30;;;;;;;8.91;100.00;94636.34;5132327;28;20919;-52
2021/12/06 00:26:09;;;;;;;0.40;0.37;;;;;;;9.07;100.00;94650.25;5132426;28;20505;-52
2021/12/06 00:28:40;;;;;;;1.73;1.63;;;;;;;9.25;100.00;94651.44;5132350;28;20419;-52
2021/12/06 00:31:11;;;;;;;0.30;0.30;;;;;;;9.40;100.00;94640.75;5132272;28;20514;-52
2021/12/06 00:33:40;;;;;;;0.30;0.20;;;;;;;9.35;100.00;94630.19;5131239;28;20431;-52
2021/12/06 00:36:16;;;;;;;0.30;0.20;;;;;;;9.31;100.00;94642.41;5132290;27;20568;-52
2021/12/06 00:38:45;;;;;;;1.40;1.13;;;;;;;9.60;100.00;94645.84;5132291;28;20484;-52
2021/12/06 00:41:14;;;;;;;0.50;0.50;;;;;;;9.59;100.00;94638.97;5132376;28;20454;-52
2021/12/06 00:43:42;;;;;;;0.30;0.30;;;;;;;9.53;100.00;94645.38;5132108;28;20506;-52
2021/12/06 00:46:12;;;;;;;0.30;0.20;;;;;;;9.21;100.00;94653.84;5132227;27;20517;-52
2021/12/06 00:48:40;;;;;;;0.53;0.53;;;;;;;9.27;100.00;94644.00;5134923;27;20921;-52
2021/12/06 00:51:11;;;;;;;0.30;0.20;;;;;;;9.26;100.00;94639.81;5136340;27;20422;-52
2021/12/06 00:53:39;;;;;;;0.73;0.53;;;;;;;9.34;100.00;94639.97;5135938;27;20466;-52
2021/12/06 00:56:07;;;;;;;0.40;0.30;;;;;;;9.23;100.00;94640.34;5135860;27;20931;-52
2021/12/06 00:58:36;;;;;;;0.30;0.20;;;;;;;9.44;100.00;94628.53;5136142;27;20433;-52
2021/12/06 01:01:06;;;;;;;0.30;0.20;;;;;;;9.58;100.00;94621.53;5135838;27;20966;-52
2021/12/06 01:03:39;;;;;;;0.97;0.97;;;;;;;9.59;100.00;94636.31;5136116;27;20427;-52
2021/12/06 01:06:10;;;;;;;0.93;0.93;;;;;;;9.75;100.00;94635.13;5135732;27;20926;-52
2021/12/06 01:08:40;;;;;;;0.50;0.50;;;;;;;9.69;100.00;94622.22;5135633;27;20434;-52
2021/12/06 01:11:11;;;;;;;0.40;0.30;;;;;;;9.45;100.00;94622.19;5135640;27;20831;-52
2021/12/06 01:13:40;;;;;;;0.87;0.63;;;;;;;9.46;100.00;94629.06;5135632;27;20938;-52
2021/12/06 01:16:08;;;;;;;0.30;0.20;;;;;;;9.47;100.00;94620.03;5135373;27;20508;-52
2021/12/06 01:18:39;;;;;;;0.37;0.27;;;;;;;9.36;100.00;94608.75;5135513;27;20509;-52
2021/12/06 01:21:15;;;;;;;0.30;0.20;;;;;;;9.23;100.00;94617.34;5135425;27;20447;-52
2021/12/06 01:23:52;;;;;;;0.30;0.20;;;;;;;9.06;100.00;94611.66;5135354;27;20914;-52
2021/12/06 01:26:45;;;;;;;0.30;0.30;;;;;;;9.36;100.00;94615.94;5134357;27;20462;-52
2021/12/06 01:32:18;;;;;;;0.50;0.30;;;;;;;9.54;100.00;94596.69;5109889;27;20442;-52
2021/12/06 01:40:22;;;;;;;0.40;0.30;;;;;;;9.08;100.00;94593.69;5135038;27;20477;-52
2021/12/06 01:42:50;;;;;;;0.30;0.30;;;;;;;9.23;100.00;94572.41;5134990;27;20564;-52
2021/12/06 01:45:19;;;;;;;2.20;0.53;;;;;;;9.39;100.00;94571.19;5134832;27;20501;-52
2021/12/06 01:47:48;;;;;;;0.30;0.20;;;;;;;9.53;100.00;94579.25;5135143;27;20487;-52
2021/12/06 01:50:22;;;;;;;0.67;0.67;;;;;;;9.63;100.00;94573.88;5134935;27;20427;-52
2021/12/06 01:52:53;;;;;;;0.40;0.40;;;;;;;9.62;100.00;94564.34;5134883;27;20514;-52
2021/12/06 01:55:24;;;;;;;0.30;0.20;;;;;;;9.63;100.00;94560.63;5135044;27;20423;-52
2021/12/06 01:57:54;;;;;;;0.30;0.30;;;;;;;9.67;100.00;94558.19;5134418;27;20591;-52
2021/12/06 02:00:27;;;;;;;0.30;0.20;;;;;;;9.50;100.00;94551.50;5134283;27;20882;-53
2021/12/06 02:02:57;;;;;;;7.70;0.80;;;;;;;9.62;100.00;94555.59;5134643;27;20434;-53
2021/12/06 02:05:27;;;;;;;0.30;0.20;;;;;;;9.77;100.00;94550.94;5134268;27;20434;-52
2021/12/06 02:07:56;;;;;;;2.97;0.87;;;;;;;9.79;100.00;94550.69;5134411;27;20431;-52
2021/12/06 02:10:24;;;;;;;0.40;0.40;;;;;;;9.60;100.00;94540.03;5134789;27;20434;-52
2021/12/06 02:12:54;;;;;;;1.17;0.40;;;;;;;9.62;100.00;94561.69;5134718;27;20504;-52
2021/12/06 02:15:36;;;;;;;0.40;0.30;;;;;;;9.13;100.00;94508.25;5133751;27;20960;-52
2021/12/06 02:18:07;;;;;;;0.37;0.27;;;;;;;9.67;100.00;94555.56;5134568;27;20458;-52
2021/12/06 02:20:45;;;;;;;0.30;0.20;;;;;;;9.70;100.00;94553.16;5134252;27;20464;-52
2021/12/06 02:23:15;;;;;;;0.40;0.30;;;;;;;9.56;100.00;94552.25;5133689;27;20453;-52
2021/12/06 02:25:44;;;;;;;0.30;0.30;;;;;;;9.87;100.00;94556.13;5134061;27;21006;-52
2021/12/06 02:28:13;;;;;;;20.00;0.57;;;;;;;9.78;100.00;94564.97;5133948;27;20462;-52
2021/12/06 02:30:41;;;;;;;0.30;0.20;;;;;;;9.90;100.00;94566.13;5133822;27;20434;-52
2021/12/06 02:33:10;;;;;;;0.30;0.20;;;;;;;9.63;100.00;94565.13;5133942;27;20458;-52
2021/12/06 02:35:38;;;;;;;0.93;0.93;;;;;;;9.03;100.00;94575.22;5134267;27;20455;-52
2021/12/06 02:38:08;;;;;;;0.40;0.40;;;;;;;9.31;100.00;94563.84;5134220;27;20478;-52
2021/12/06 02:40:40;;;;;;;0.30;0.30;;;;;;;9.57;100.00;94567.03;5134111;27;20507;-52
2021/12/06 02:43:10;;;;;;;0.30;0.20;;;;;;;9.91;100.00;94556.34;5133649;27;20494;-52
2021/12/06 02:45:40;;;;;;;0.30;0.20;;;;;;;9.75;100.00;94489.56;5133580;27;20475;-53
2021/12/06 02:48:12;;;;;;;0.30;0.20;;;;;;;10.12;100.00;94553.19;5133797;27;20505;-52
2021/12/06 02:50:45;;;;;;;0.30;0.20;;;;;;;9.90;100.00;94554.75;5133648;27;20525;-52
2021/12/06 02:53:14;;;;;;;0.30;0.20;;;;;;;9.74;100.00;94543.56;5133601;27;20458;-52
2021/12/06 02:55:51;;;;;;;0.43;0.43;;;;;;;9.62;100.00;94521.22;5133388;27;20427;-52
2021/12/06 02:58:45;;;;;;;0.30;0.30;;;;;;;9.84;100.00;94540.03;5133154;27;20541;-52
2021/12/06 03:01:13;;;;;;;0.30;0.20;;;;;;;10.03;100.00;94532.91;5133190;27;20434;-52
2021/12/06 03:03:42;;;;;;;0.47;0.47;;;;;;;9.76;100.00;94544.09;5132853;27;20426;-53
2021/12/06 03:06:11;;;;;;;0.93;0.90;;;;;;;9.50;100.00;94535.63;5133349;27;20879;-53
2021/12/06 03:08:42;;;;;;;0.40;0.40;;;;;;;9.46;100.00;94553.13;5133397;27;20834;-53
2021/12/06 03:11:16;;;;;;;0.30;0.20;;;;;;;9.88;100.00;94557.69;5132908;27;20430;-52
2021/12/06 03:13:45;;;;;;;0.30;0.30;;;;;;;10.06;100.00;94559.59;5133302;27;21136;-53
2021/12/06 03:16:14;;;;;;;0.60;0.57;;;;;;;10.13;100.00;94560.06;5133525;27;20506;-52
2021/12/06 03:18:43;;;;;;;0.30;0.20;;;;;;;10.16;100.00;94550.78;5133137;27;20474;-52
2021/12/06 03:21:12;;;;;;;0.30;0.20;;;;;;;9.06;100.00;94365.09;5133402;27;20470;-52
2021/12/06 03:23:40;;;;;;;0.40;0.30;;;;;;;9.48;100.00;94470.88;5133212;27;20506;-52
2021/12/06 03:26:09;;;;;;;0.60;0.40;;;;;;;10.24;100.00;94552.00;5133398;27;20481;-53
2021/12/06 03:28:40;;;;;;;0.30;0.20;;;;;;;9.89;100.00;94558.50;5133381;27;20457;-53
2021/12/06 03:31:09;;;;;;;0.40;0.30;;;;;;;10.12;100.00;94541.81;5132968;27;20464;-53
2021/12/06 03:33:40;;;;;;;0.40;0.30;;;;;;;10.13;100.00;94544.19;5132901;27;20487;-52
2021/12/06 03:36:10;;;;;;;0.30;0.20;;;;;;;9.83;100.00;94543.72;5132949;27;20473;-53
2021/12/06 03:38:40;;;;;;;0.30;0.20;;;;;;;9.09;100.00;94428.72;5132814;27;20471;-53
2021/12/06 03:41:11;;;;;;;0.30;0.30;;;;;;;9.93;100.00;94533.81;5132879;27;20431;-52
2021/12/06 03:43:42;;;;;;;0.50;0.30;;;;;;;10.08;100.00;94536.28;5131968;27;20557;-53
2021/12/06 03:46:13;;;;;;;0.33;0.27;;;;;;;10.25;100.00;94554.34;5132432;27;20475;-54
2021/12/06 03:48:42;;;;;;;0.30;0.20;;;;;;;10.31;100.00;94533.88;5133093;27;20479;-53
2021/12/06 03:51:10;;;;;;;0.30;0.20;;;;;;;10.16;100.00;94527.72;5133167;27;20505;-53
2021/12/06 03:53:39;;;;;;;0.40;0.40;;;;;;;10.20;100.00;94527.94;5132740;27;20987;-53
2021/12/06 03:56:07;;;;;;;0.30;0.20;;;;;;;10.30;100.00;94527.00;5133033;27;20494;-53
2021/12/06 03:58:37;;;;;;;0.30;0.20;;;;;;;10.20;100.00;94527.94;5132573;28;20474;-53
2021/12/06 04:01:07;;;;;;;0.30;0.20;;;;;;;9.59;100.00;94414.09;5132584;28;20984;-54
2021/12/06 04:03:38;;;;;;;0.30;0.20;;;;;;;10.29;100.00;94523.59;5132695;27;20952;-53
2021/12/06 04:06:08;;;;;;;0.30;0.20;;;;;;;10.29;100.00;94525.44;5132821;28;20502;-53
2021/12/06 04:08:36;;;;;;;0.40;0.30;;;;;;;10.27;100.00;94527.59;5132221;28;20470;-53
2021/12/06 04:11:05;;;;;;;0.50;0.40;;;;;;;10.07;100.00;94529.38;5132500;28;20522;-53
2021/12/06 04:13:33;;;;;;;0.30;0.20;;;;;;;9.95;100.00;94513.13;5132590;27;20426;-53
2021/12/06 04:16:03;;;;;;;0.37;0.30;;;;;;;10.06;100.00;94506.66;5132387;28;20449;-53
2021/12/06 04:18:33;;;;;;;0.30;0.20;;;;;;;9.62;100.00;94447.94;5132049;28;20466;-53
2021/12/06 04:21:02;;;;;;;0.30;0.20;;;;;;;10.10;100.00;94514.78;5132911;27;20454;-53
2021/12/06 04:23:31;;;;;;;0.30;0.20;;;;;;;9.73;100.00;94462.63;5136619;27;21103;-53
2021/12/06 04:26:00;;;;;;;0.83;0.83;;;;;;;10.10;100.00;94512.16;5136478;27;20430;-53
2021/12/06 04:28:31;;;;;;;0.37;0.30;;;;;;;10.14;100.00;94518.50;5136089;27;20509;-53
2021/12/06 04:31:00;;;;;;;0.30;0.30;;;;;;;10.38;100.00;94515.75;5136075;27;20458;-53
2021/12/06 04:33:28;;;;;;;0.50;0.40;;;;;;;10.39;100.00;94522.66;5136412;27;20419;-53
2021/12/06 04:35:59;;;;;;;0.40;0.30;;;;;;;10.47;100.00;94528.09;5136028;27;20457;-53
2021/12/06 04:38:28;;;;;;;0.80;0.80;;;;;;;9.92;100.00;94532.22;5136094;27;20981;-53
2021/12/06 04:40:56;;;;;;;0.40;0.40;;;;;;;9.79;100.00;94546.16;5136540;27;20418;-53
2021/12/06 04:43:24;;;;;;;0.97;0.97;;;;;;;9.49;100.00;94538.53;5136158;27;20518;-53
2021/12/06 04:45:53;;;;;;;0.70;0.70;;;;;;;9.92;100.00;94536.72;5136474;27;20656;-53
2021/12/06 04:48:21;;;;;;;0.70;0.70;;;;;;;10.08;100.00;94538.91;5136410;27;20434;-53
2021/12/06 04:50:50;;;;;;;2.87;1.83;;;;;;;9.61;100.00;94546.91;5136288;27;20415;-53
2021/12/06 04:53:25;;;;;;;0.50;0.50;;;;;;;9.66;100.00;94543.41;5135936;27;20439;-53
2021/12/06 04:55:57;;;;;;;0.33;0.27;;;;;;;9.90;100.00;94537.03;5136281;27;20445;-53
2021/12/06 04:58:29;;;;;;;0.63;0.63;;;;;;;10.11;100.00;94535.72;5135930;27;20553;-53
2021/12/06 05:01:02;;;;;;;0.40;0.27;;;;;;;10.09;100.00;94523.81;5136089;27;20505;-53
2021/12/06 05:03:33;;;;;;;0.50;0.50;;;;;;;9.91;100.00;94535.97;5135633;27;20430;-53
2021/12/06 05:06:04;;;;;;;2.93;1.27;;;;;;;9.77;100.00;94539.56;5135866;27;20423;-53
2021/12/06 05:08:41;;;;;;;0.63;0.63;;;;;;;9.34;100.00;94536.84;5135552;27;20876;-52
2021/12/06 05:11:10;;;;;;;0.90;0.90;;;;;;;9.44;100.00;94501.56;5135737;27;20453;-53
2021/12/06 05:13:43;;;;;;;0.50;0.30;;;;;;;9.27;100.00;94546.19;5135185;27;20799;-53
2021/12/06 05:16:12;;;;;;;0.40;0.40;;;;;;;9.06;100.00;94465.53;5135333;27;20418;-52
2021/12/06 05:18:41;;;;;;;1.23;1.20;;;;;;;9.57;100.00;94546.66;5135515;27;20470;-52
2021/12/06 05:21:09;;;;;;;0.90;0.90;;;;;;;9.79;100.00;94554.09;5135188;27;20450;-53
2021/12/06 05:23:39;;;;;;;2.97;2.80;;;;;;;9.22;100.00;94469.56;5134997;27;20423;-52
2021/12/06 05:26:08;;;;;;;2.87;1.90;;;;;;;9.00;100.00;94525.56;5134976;27;20422;-53
2021/12/06 05:28:42;;;;;;;2.17;1.50;;;;;;;9.22;100.00;94540.94;5134823;27;20495;-53
2021/12/06 05:31:15;;;;;;;4.40;1.70;;;;;;;9.10;100.00;94490.31;5134766;27;20426;-53
2021/12/06 05:33:46;;;;;;;0.60;0.60;;;;;;;9.74;100.00;94567.38;5134066;27;20434;-53
2021/12/06 05:36:16;;;;;;;0.53;0.50;;;;;;;9.67;100.00;94545.75;5134424;27;20934;-53
2021/12/06 05:38:46;;;;;;;1.23;1.17;;;;;;;9.88;100.00;94549.75;5134451;27;20478;-53
2021/12/06 05:41:14;;;;;;;1.87;1.60;;;;;;;9.94;100.00;94540.66;5133923;27;20469;-53
2021/12/06 05:43:43;;;;;;;0.80;0.70;;;;;;;9.87;100.00;94534.16;5133895;27;20477;-52
2021/12/06 05:46:11;;;;;;;0.40;0.30;;;;;;;10.06;100.00;94543.72;5134122;27;20473;-52
2021/12/06 05:48:40;;;;;;;1.23;0.70;;;;;;;10.15;100.00;94533.28;5133971;27;20511;-51
2021/12/06 05:51:08;;;;;;;0.40;0.40;;;;;;;9.75;100.00;94457.03;5134185;27;21018;-51
2021/12/06 05:53:37;;;;;;;1.53;0.60;;;;;;;9.67;100.00;94417.97;5133738;27;20464;-51
2021/12/06 05:56:07;;;;;;;0.40;0.30;;;;;;;10.39;100.00;94531.38;5134246;27;20844;-52
2021/12/06 05:58:36;;;;;;;0.30;0.30;;;;;;;10.01;100.00;94540.34;5133859;27;20565;-52
2021/12/06 06:01:06;;;;;;;2.40;0.67;;;;;;;9.92;100.00;94547.31;5134499;27;20427;-52
2021/12/06 06:03:35;;;;;;;0.60;0.60;;;;;;;10.23;100.00;94548.56;5133582;27;20850;-52
2021/12/06 06:06:04;;;;;;;1.13;0.60;;;;;;;10.28;100.00;94537.88;5134405;27;20419;-52
2021/12/06 06:08:33;;;;;;;1.13;1.13;;;;;;;10.17;100.00;94515.25;5134165;27;20929;-51
2021/12/06 06:11:01;;;;;;;2.63;2.50;;;;;;;9.46;100.00;94438.63;5134258;27;20427;-49
2021/12/06 06:13:31;;;;;;;1.63;1.60;;;;;;;10.00;100.00;94544.84;5134722;27;20459;-52
2021/12/06 06:16:02;;;;;;;2.70;2.50;;;;;;;9.99;100.00;94548.53;5134611;27;20435;-52
2021/12/06 06:18:30;;;;;;;4.30;2.60;;;;;;;10.12;100.00;94541.81;5134399;27;20474;-52
2021/12/06 06:20:59;;;;;;;1.20;1.20;;;;;;;10.05;100.00;94547.44;5134209;27;20951;-52
2021/12/06 06:23:28;;;;;;;1.60;1.60;;;;;;;9.63;100.00;94552.69;5133995;27;20526;-52
2021/12/06 06:25:57;;;;;;;4.93;4.63;;;;;;;9.36;100.00;94560.41;5134146;27;20418;-52
2021/12/06 06:28:25;;;;;;;1.00;1.00;;;;;;;9.69;100.00;94564.78;5134183;27;20506;-52
2021/12/06 06:30:55;;;;;;;1.40;1.30;;;;;;;9.95;100.00;94560.00;5134015;27;20419;-51
2021/12/06 06:33:24;;;;;;;2.20;2.10;;;;;;;9.86;100.00;94565.13;5133984;27;20427;-52
2021/12/06 06:35:53;;;;;;;3.00;2.63;;;;;;;10.15;100.00;94557.13;5133305;27;20930;-52
2021/12/06 06:38:22;;;;;;;1.00;0.83;;;;;;;9.47;100.00;94499.16;5133787;27;20466;-52
2021/12/06 06:40:51;;;;;;;1.30;1.30;;;;;;;9.92;100.00;94549.97;5133769;27;20459;-52
2021/12/06 06:43:20;;;;;;;3.87;3.60;;;;;;;10.01;100.00;94558.88;5132737;27;20431;-52
2021/12/06 06:45:49;;;;;;;3.53;2.40;;;;;;;9.94;100.00;94521.38;5131743;27;20478;-52
2021/12/06 06:48:18;;;;;;;1.53;1.43;;;;;;;10.23;100.00;94563.66;5133820;27;20501;-52
2021/12/06 06:50:47;;;;;;;1.47;1.47;;;;;;;9.83;100.00;94470.44;5133429;27;20425;-52
2021/12/06 06:53:15;;;;;;;0.97;0.97;;;;;;;10.51;100.00;94570.69;5132651;27;20506;-52
2021/12/06 06:55:44;;;;;;;1.30;1.20;;;;;;;10.23;100.00;94500.88;5133494;27;20484;-52
2021/12/06 06:58:16;;;;;;;0.57;0.57;;;;;;;10.56;100.00;94571.41;5133007;27;20422;-52
2021/12/06 07:00:44;;;;;;;2.47;1.50;;;;;;;10.81;100.00;94567.59;5133231;27;20501;-53
2021/12/06 07:03:13;;;;;;;1.20;1.10;;;;;;;10.83;100.00;94568.09;5133456;27;20426;-52
2021/12/06 07:05:43;;;;;;;0.90;0.90;;;;;;;10.98;100.00;94559.88;5133481;27;20430;-52
2021/12/06 07:08:11;;;;;;;0.40;0.40;;;;;;;10.61;100.00;94555.44;5132959;27;20442;-53
2021/12/06 07:10:40;;;;;;;1.83;1.73;;;;;;;10.62;100.00;94551.72;5133620;27;20521;-52
2021/12/06 07:13:11;;;;;;;2.47;2.30;;;;;;;10.50;100.00;94564.59;5133335;27;20431;-52
2021/12/06 07:15:40;;;;;;;2.43;2.23;;;;;;;10.72;100.00;94550.78;5133404;27;20824;-52
2021/12/06 07:18:08;;;;;;;4.27;1.37;;;;;;;10.63;100.00;94565.72;5133083;27;20437;-53
2021/12/06 07:20:37;;;;;;;3.20;3.10;;;;;;;10.02;100.00;94494.25;5131407;27;20544;-52
2021/12/06 07:23:07;;;;;;;3.70;2.40;;;;;;;10.79;100.00;94554.63;5133041;27;20438;-51
2021/12/06 07:25:36;;;;;;;3.63;3.43;;;;;;;10.96;100.00;94554.09;5133054;27;20419;-54
2021/12/06 07:28:06;;;;;;;2.07;1.97;;;;;;;10.80;100.00;94555.44;5133095;27;20453;-52
2021/12/06 07:30:35;;;;;;;4.23;3.93;;;;;;;10.96;100.00;94555.97;5133240;27;20473;-53
2021/12/06 07:33:03;;;;;;;19.83;7.07;;;;;;;10.75;100.00;94558.16;5132320;27;20502;-52
2021/12/06 07:35:32;;;;;;;3.70;3.60;;;;;;;10.89;100.00;94561.63;5131872;27;20958;-52
2021/12/06 07:38:03;;;;;;;4.80;4.57;;;;;;;10.70;100.00;94555.59;5132220;27;20423;-53
2021/12/06 07:40:33;;;;;;;2.37;2.20;;;;;;;10.48;100.00;94572.03;5132361;27;20481;-52
2021/12/06 07:43:03;;;;;;;6.37;4.60;;;;;;;10.00;100.00;94477.88;5132002;27;20449;-52
2021/12/06 07:45:31;;;;;;;1.07;1.07;;;;;;;11.00;100.00;94560.41;5131991;27;20450;-53
2021/12/06 07:47:59;;;;;;;0.73;0.73;;;;;;;11.28;100.00;94566.59;5131996;27;20457;-52
2021/12/06 07:50:28;;;;;;;1.73;0.67;;;;;;;11.28;100.00;94558.63;5132676;27;20967;-52
2021/12/06 07:52:56;;;;;;;0.50;0.50;;;;;;;11.47;100.00;94568.09;5132572;27;20501;-53
2021/12/06 07:55:30;;;;;;;0.70;0.70;;;;;;;11.33;100.00;94505.47;5132523;28;20415;-53
2021/12/06 07:58:01;;;;;;;0.80;0.50;;;;;;;11.21;100.00;94510.44;5132045;27;20455;-53
2021/12/06 08:00:31;;;;;;;1.47;1.37;;;;;;;10.95;100.00;94555.19;5132571;28;20466;-53
2021/12/06 08:02:59;;;;;;;0.43;0.43;;;;;;;10.79;100.00;94556.50;5132532;28;20501;-52
2021/12/06 08:05:33;;;;;;;2.23;0.77;;;;;;;11.08;100.00;94543.81;5132073;28;20423;-52
2021/12/06 08:08:05;;;;;;;1.70;1.53;;;;;;;11.24;100.00;94557.63;5132097;28;20450;-53
2021/12/06 08:10:36;;;;;;;0.60;0.60;;;;;;;11.70;100.00;94554.97;5132119;28;20975;-53
2021/12/06 08:13:08;;;;;;;1.47;0.60;;;;;;;11.59;100.00;94551.69;5132366;28;20431;-53
2021/12/06 08:15:36;;;;;;;1.57;1.57;;;;;;;11.36;100.00;94487.09;5132371;27;20419;-53
2021/12/06 08:18:06;;;;;;;0.40;0.30;;;;;;;11.95;100.00;94539.34;5132107;28;20410;-52
2021/12/06 08:20:36;;;;;;;4.23;1.00;;;;;;;11.85;100.00;94497.06;5132310;28;20942;-54
2021/12/06 08:23:06;;;;;;;0.77;0.77;;;;;;;11.99;100.00;94548.28;5132014;28;20451;-52
2021/12/06 08:25:36;;;;;;;0.50;0.50;;;;;;;12.29;100.00;94535.47;5131984;28;20455;-53
2021/12/06 08:28:06;;;;;;;0.30;0.20;;;;;;;12.11;100.00;94545.13;5131968;27;20422;-52
2021/12/06 08:30:35;;;;;;;0.40;0.40;;;;;;;11.81;100.00;94537.78;5131976;28;20458;-52
2021/12/06 08:33:06;;;;;;;1.27;0.57;;;;;;;11.27;100.00;94509.28;5132207;28;20505;-52
2021/12/06 08:35:37;;;;;;;0.70;0.70;;;;;;;11.72;100.00;94550.16;5131835;27;20419;-53
2021/12/06 08:38:07;;;;;;;0.80;0.67;;;;;;;12.19;100.00;94538.34;5132336;28;20470;-54
2021/12/06 08:40:36;;;;;;;0.93;0.93;;;;;;;12.11;100.00;94537.16;5132093;28;20458;-52
2021/12/06 08:43:06;;;;;;;0.37;0.30;;;;;;;11.92;100.00;94537.28;5132399;27;20471;-53
2021/12/06 08:45:35;;;;;;;0.53;0.50;;;;;;;12.19;100.00;94517.09;5132248;27;20430;-53
2021/12/06 08:48:04;;;;;;;0.53;0.53;;;;;;;12.33;100.00;94539.09;5132185;28;20468;-52
2021/12/06 08:50:33;;;;;;;2.40;0.50;;;;;;;12.11;100.00;94539.81;5132275;28;20422;-53
2021/12/06 08:53:02;;;;;;;0.30;0.20;;;;;;;12.18;100.00;94536.75;5132198;28;20419;-53
2021/12/06 08:55:30;;;;;;;1.13;1.13;;;;;;;11.62;100.00;94476.00;5132083;27;20977;-53
2021/12/06 08:57:59;;;;;;;0.70;0.53;;;;;;;11.75;100.00;94538.94;5132126;28;20506;-53
2021/12/06 09:00:32;;;;;;;5.80;2.00;;;;;;;11.35;100.00;94525.34;5132140;27;20501;-53
2021/12/06 09:03:02;;;;;;;1.33;1.33;;;;;;;11.29;100.00;94526.50;5132275;27;20422;-53
2021/12/06 09:05:34;;;;;;;0.50;0.50;;;;;;;11.80;100.00;94513.09;5131988;28;20788;-53
2021/12/06 09:08:03;;;;;;;0.30;0.20;;;;;;;11.76;100.00;94521.94;5132189;27;20779;-53
2021/12/06 09:10:32;;;;;;;0.30;0.23;;;;;;;12.04;100.00;94512.88;5135624;27;20426;-52
2021/12/06 09:13:02;;;;;;;0.40;0.30;;;;;;;12.21;100.00;94506.94;5135994;27;20859;-53
2021/12/06 09:15:33;;;;;;;0.77;0.77;;;;;;;12.16;100.00;94507.84;5135876;27;20495;-53
2021/12/06 09:18:02;;;;;;;0.70;0.40;;;;;;;12.32;100.00;94501.09;5135496;27;20427;-53
2021/12/06 09:20:33;;;;;;;5.50;0.97;;;;;;;12.48;100.00;94498.91;5135648;27;20454;-52
2021/12/06 09:23:02;;;;;;;0.50;0.40;;;;;;;12.55;100.00;94492.06;5135638;27;20487;-53
2021/12/06 09:25:30;;;;;;;0.90;0.90;;;;;;;12.15;100.00;94490.31;5135538;27;20473;-53
2021/12/06 09:27:59;;;;;;;0.67;0.67;;;;;;;12.06;100.00;94481.50;5135093;27;20446;-53
2021/12/06 09:30:31;;;;;;;4.33;1.47;;;;;;;11.35;100.00;94358.22;5135442;27;20484;-53
2021/12/06 09:33:03;;;;;;;1.33;1.33;;;;;;;12.24;100.00;94487.75;5135046;27;20418;-53
2021/12/06 09:35:39;;;;;;;0.70;0.70;;;;;;;12.21;100.00;94483.81;5135454;27;20454;-52
2021/12/06 09:38:08;;;;;;;8.73;2.10;;;;;;;11.69;100.00;94487.06;5134950;27;20462;-52
2021/12/06 09:40:42;;;;;;;12.73;2.93;;;;;;;11.75;100.00;94477.88;5134909;27;21009;-52
2021/12/06 09:43:13;;;;;;;3.03;2.73;;;;;;;12.13;100.00;94479.22;5135075;27;20471;-53
2021/12/06 09:45:46;;;;;;;2.30;1.23;;;;;;;12.02;100.00;94472.53;5135126;27;20872;-53
2021/12/06 09:48:36;;;;;;;2.13;2.00;;;;;;;12.17;100.00;94464.25;5134878;27;20497;-52
2021/12/06 09:51:07;;;;;;;0.67;0.60;;;;;;;12.31;100.00;94456.25;5134884;27;20414;-52
2021/12/06 09:53:38;;;;;;;3.70;0.87;;;;;;;12.15;100.00;94402.66;5134670;27;20411;-52
2021/12/06 09:56:10;;;;;;;2.90;1.80;;;;;;;12.67;100.00;94452.44;5134524;27;20426;-52
2021/12/06 09:58:40;;;;;;;1.17;1.17;;;;;;;12.61;100.00;94450.22;5134343;27;20938;-52
2021/12/06 10:01:11;;;;;;;0.97;0.97;;;;;;;12.48;100.00;94443.88;5134359;27;20513;-53
2021/12/06 10:03:44;;;;;;;0.70;0.70;;;;;;;12.41;100.00;94443.50;5134701;27;20781;-53
2021/12/06 10:06:13;;;;;;;0.73;0.73;;;;;;;12.71;100.00;94442.00;5134287;27;20859;-53
2021/12/06 10:08:45;;;;;;;0.50;0.40;;;;;;;12.54;100.00;94440.03;5134087;27;20852;-53
2021/12/06 10:11:17;;;;;;;0.93;0.93;;;;;;;12.51;100.00;94422.00;5134225;27;20466;-53
2021/12/06 10:13:46;;;;;;;2.13;2.03;;;;;;;12.32;100.00;94432.03;5134233;27;20450;-53
2021/12/06 10:16:15;;;;;;;1.80;1.70;;;;;;;12.26;100.00;94417.31;5134380;27;20497;-53
2021/12/06 10:18:45;;;;;;;1.53;1.43;;;;;;;12.15;100.00;94426.56;5134256;27;20422;-53
2021/12/06 10:21:15;;;;;;;1.70;1.57;;;;;;;12.29;100.00;94423.88;5134095;27;20889;-53
2021/12/06 10:23:44;;;;;;;0.83;0.60;;;;;;;12.43;100.00;94436.03;5134343;27;20419;-53
2021/12/06 10:26:32;;;;;;;1.83;1.73;;;;;;;12.21;100.00;94424.59;5134046;27;20960;-53
2021/12/06 10:29:04;;;;;;;0.43;0.43;;;;;;;12.54;100.00;94423.28;5134426;27;20411;-53
2021/12/06 10:31:34;;;;;;;0.50;0.40;;;;;;;12.31;100.00;94427.81;5134377;27;20419;-53
2021/12/06 10:34:04;;;;;;;0.80;0.80;;;;;;;12.44;100.00;94426.97;5134023;27;20433;-52
2021/12/06 10:36:34;;;;;;;7.00;0.27;;;;;;;12.36;100.00;94377.22;5134279;27;20452;-52
2021/12/06 10:39:07;;;;;;;2.10;1.53;;;;;;;12.54;100.00;94420.63;5133860;27;20796;-52
2021/12/06 10:41:38;;;;;;;0.40;0.30;;;;;;;12.48;100.00;94411.97;5133782;27;20505;-52
2021/12/06 10:44:10;;;;;;;3.00;2.90;;;;;;;12.23;100.00;94419.75;5133875;27;20513;-52
2021/12/06 10:46:41;;;;;;;0.97;0.40;;;;;;;11.97;100.00;94422.97;5133932;27;20491;-52
2021/12/06 10:49:14;;;;;;;0.40;0.30;;;;;;;12.08;100.00;94418.25;5133670;27;20471;-53
2021/12/06 10:51:43;;;;;;;0.40;0.37;;;;;;;12.28;100.00;94409.00;5133550;27;20419;-52
2021/12/06 10:54:19;;;;;;;0.40;0.40;;;;;;;12.13;100.00;94354.38;5133569;27;20418;-52
2021/12/06 10:56:52;;;;;;;1.27;1.17;;;;;;;12.43;100.00;94388.19;5133845;27;20414;-53
2021/12/06 10:59:24;;;;;;;1.27;1.27;;;;;;;11.85;100.00;94374.94;5133399;27;20415;-52
2021/12/06 11:01:55;;;;;;;6.43;2.73;;;;;;;11.84;100.00;94391.19;5133656;27;20590;-53
2021/12/06 11:04:29;;;;;;;1.13;0.40;;;;;;;12.09;100.00;94395.91;5133518;27;20941;-53
2021/12/06 11:07:05;;;;;;;4.53;0.40;;;;;;;12.32;100.00;94389.50;5133081;27;20429;-52
2021/12/06 11:09:37;;;;;;;0.50;0.50;;;;;;;12.52;100.00;94383.69;5133177;27;20429;-53
2021/12/06 11:12:08;;;;;;;1.43;0.60;;;;;;;12.68;100.00;94379.59;5133630;27;20434;-53
2021/12/06 11:14:38;;;;;;;0.60;0.60;;;;;;;12.51;100.00;94336.97;5133618;27;20491;-52
2021/12/06 11:17:09;;;;;;;5.80;1.17;;;;;;;12.29;100.00;94382.16;5133247;27;20418;-53
2021/12/06 11:19:40;;;;;;;3.73;1.07;;;;;;;12.06;100.00;94384.03;5133406;27;20495;-52
2021/12/06 11:22:12;;;;;;;1.07;0.70;;;;;;;11.95;100.00;94368.59;5133088;27;20466;-53
2021/12/06 11:24:43;;;;;;;2.70;2.17;;;;;;;11.95;100.00;94369.41;5132954;27;20475;-53
2021/12/06 11:27:15;;;;;;;0.40;0.40;;;;;;;12.49;100.00;94356.97;5133034;27;20450;-53
2021/12/06 11:29:45;;;;;;;1.40;1.30;;;;;;;12.62;100.00;94359.53;5132761;27;20514;-53
2021/12/06 11:32:17;;;;;;;0.40;0.30;;;;;;;12.56;100.00;94358.09;5132699;27;20477;-52
2021/12/06 11:34:49;;;;;;;0.83;0.83;;;;;;;12.14;100.00;94348.00;5132946;27;20439;-52
2021/12/06 11:37:20;;;;;;;2.40;2.30;;;;;;;11.76;100.00;94360.03;5132839;27;20982;-52
2021/12/06 11:39:51;;;;;;;0.80;0.60;;;;;;;12.19;100.00;94345.22;5133059;27;20450;-54
2021/12/06 11:42:19;;;;;;;1.57;1.47;;;;;;;12.06;100.00;94335.44;5132865;27;20560;-53
2021/12/06 11:44:48;;;;;;;0.40;0.30;;;;;;;11.44;100.00;94268.84;5132630;27;20562;-53
2021/12/06 11:47:19;;;;;;;1.33;1.33;;;;;;;12.16;100.00;94351.13;5133100;27;20487;-53
2021/12/06 11:49:52;;;;;;;0.50;0.50;;;;;;;12.26;100.00;94345.56;5132747;27;20422;-53
2021/12/06 11:52:23;;;;;;;1.23;1.23;;;;;;;12.33;100.00;94335.28;5133076;27;20483;-52